sensor_id;sensor_type;location;lat;lon;timestamp;pressure;altitude;pressure_sealevel;temperature;humidity
58757;BME280;44527;47.460;19.016;2023-06-24T00:00:06;100397.66;;;19.57;100.00
58757;BME280;44527;47.460;19.016;2023-06-24T00:03:09;100414.81;;;19.62;100.00
58757;BME280;44527;47.460;19.016;2023-06-24T00:06:12;100417.13;;;19.57;100.00
58757;BME280;44527;47.460;19.016;2023-06-24T00:09:20;100433.50;;;19.44;100.00
58757;BME280;44527;47.460;19.016;2023-06-24T00:12:22;100422.59;;;19.56;100.00
58757;BME280;44527;47.460;19.016;2023-06-24T00:15:24;100430.22;;;19.50;100.00
58757;BME280;44527;47.460;19.016;2023-06-24T00:18:27;100419.00;;;19.65;100.00
58757;BME280;44527;47.460;19.016;2023-06-24T00:21:31;100420.59;;;19.58;100.00
58757;BME280;44527;47.460;19.016;2023-06-24T00:24:34;100428.53;;;19.49;100.00
58757;BME280;44527;47.460;19.016;2023-06-24T00:27:36;100422.59;;;19.56;100.00
58757;BME280;44527;47.460;19.016;2023-06-24T00:30:39;100428.84;;;19.46;100.00
58757;BME280;44527;47.460;19.016;2023-06-24T00:33:41;100406.53;;;19.39;100.00
58757;BME280;44527;47.460;19.016;2023-06-24T00:36:44;100409.56;;;19.44;100.00
58757;BME280;44527;47.460;19.016;2023-06-24T00:39:49;100409.03;;;19.41;100.00
58757;BME280;44527;47.460;19.016;2023-06-24T00:42:51;100405.59;;;19.48;100.00
58757;BME280;44527;47.460;19.016;2023-06-24T00:45:54;100415.59;;;19.55;100.00
58757;BME280;44527;47.460;19.016;2023-06-24T00:48:58;100399.94;;;19.51;96.69
58757;BME280;44527;47.460;19.016;2023-06-24T00:52:02;100396.66;;;19.58;94.70
58757;BME280;44527;47.460;19.016;2023-06-24T00:55:07;100381.69;;;19.57;94.05
58757;BME280;44527;47.460;19.016;2023-06-24T00:58:10;100380.59;;;19.67;89.01
58757;BME280;44527;47.460;19.016;2023-06-24T01:01:12;100381.25;;;19.69;93.16
58757;BME280;44527;47.460;19.016;2023-06-24T01:04:15;100388.09;;;19.72;90.57
58757;BME280;44527;47.460;19.016;2023-06-24T01:07:19;100390.56;;;19.65;90.80
58757;BME280;44527;47.460;19.016;2023-06-24T01:10:23;100385.38;;;19.64;91.30
58757;BME280;44527;47.460;19.016;2023-06-24T01:13:27;100369.88;;;19.59;86.99
58757;BME280;44527;47.460;19.016;2023-06-24T01:16:59;100365.97;;;19.71;87.99
58757;BME280;44527;47.460;19.016;2023-06-24T01:26:44;100351.34;;;19.76;85.51
58757;BME280;44527;47.460;19.016;2023-06-24T01:30:04;100351.75;;;19.63;87.77
58757;BME280;44527;47.460;19.016;2023-06-24T01:33:17;100346.78;;;19.68;87.96
58757;BME280;44527;47.460;19.016;2023-06-24T01:36:24;100346.34;;;19.72;86.14
58757;BME280;44527;47.460;19.016;2023-06-24T01:39:31;100327.19;;;19.77;86.64
58757;BME280;44527;47.460;19.016;2023-06-24T01:42:39;100315.16;;;19.65;86.29
58757;BME280;44527;47.460;19.016;2023-06-24T01:45:43;100311.31;;;19.59;86.13
58757;BME280;44527;47.460;19.016;2023-06-24T01:48:48;100320.28;;;19.58;85.50
58757;BME280;44527;47.460;19.016;2023-06-24T01:51:57;100314.84;;;19.68;87.94
58757;BME280;44527;47.460;19.016;2023-06-24T01:55:01;100325.44;;;19.60;85.46
58757;BME280;44527;47.460;19.016;2023-06-24T01:58:08;100305.66;;;19.62;83.96
58757;BME280;44527;47.460;19.016;2023-06-24T02:01:12;100304.31;;;19.58;84.80
58757;BME280;44527;47.460;19.016;2023-06-24T02:04:16;100290.00;;;19.59;84.45
58757;BME280;44527;47.460;19.016;2023-06-24T02:07:20;100296.16;;;19.60;83.53
58757;BME280;44527;47.460;19.016;2023-06-24T02:10:23;100296.81;;;19.62;87.62
58757;BME280;44527;47.460;19.016;2023-06-24T02:13:26;100297.47;;;19.56;84.36
58757;BME280;44527;47.460;19.016;2023-06-24T02:16:29;100278.44;;;19.42;84.59
58757;BME280;44527;47.460;19.016;2023-06-24T02:19:33;100278.81;;;19.47;84.07
58757;BME280;44527;47.460;19.016;2023-06-24T02:22:37;100283.47;;;19.45;85.18
58757;BME280;44527;47.460;19.016;2023-06-24T02:25:41;100298.91;;;19.42;86.27
58757;BME280;44527;47.460;19.016;2023-06-24T02:28:44;100308.44;;;19.52;84.10
58757;BME280;44527;47.460;19.016;2023-06-24T02:31:48;100315.31;;;19.63;84.10
58757;BME280;44527;47.460;19.016;2023-06-24T02:34:51;100310.00;;;19.63;84.46
58757;BME280;44527;47.460;19.016;2023-06-24T02:37:53;100307.09;;;19.48;83.36
58757;BME280;44527;47.460;19.016;2023-06-24T02:40:56;100322.03;;;19.41;84.28
58757;BME280;44527;47.460;19.016;2023-06-24T02:43:59;100324.38;;;19.44;87.45
58757;BME280;44527;47.460;19.016;2023-06-24T02:47:02;100331.69;;;19.42;84.25
58757;BME280;44527;47.460;19.016;2023-06-24T02:50:06;100325.66;;;19.32;83.92
58757;BME280;44527;47.460;19.016;2023-06-24T02:53:11;100335.81;;;19.37;84.61
58757;BME280;44527;47.460;19.016;2023-06-24T02:56:15;100347.16;;;19.39;85.79
58757;BME280;44527;47.460;19.016;2023-06-24T02:59:24;100335.09;;;19.26;84.23
58757;BME280;44527;47.460;19.016;2023-06-24T03:02:28;100339.91;;;19.23;84.44
58757;BME280;44527;47.460;19.016;2023-06-24T03:05:32;100341.00;;;19.38;83.21
58757;BME280;44527;47.460;19.016;2023-06-24T03:08:36;100343.72;;;19.20;85.51
58757;BME280;44527;47.460;19.016;2023-06-24T03:11:43;100356.31;;;19.18;84.92
58757;BME280;44527;47.460;19.016;2023-06-24T03:14:46;100361.31;;;19.13;84.76
58757;BME280;44527;47.460;19.016;2023-06-24T03:17:50;100352.37;;;19.22;84.43
58757;BME280;44527;47.460;19.016;2023-06-24T03:20:53;100349.16;;;19.11;84.55
58757;BME280;44527;47.460;19.016;2023-06-24T03:23:57;100339.72;;;19.16;83.56
58757;BME280;44527;47.460;19.016;2023-06-24T03:27:01;100328.53;;;19.13;83.68
58757;BME280;44527;47.460;19.016;2023-06-24T03:30:05;100329.72;;;19.18;83.31
58757;BME280;44527;47.460;19.016;2023-06-24T03:33:08;100329.31;;;19.05;84.18
58757;BME280;44527;47.460;19.016;2023-06-24T03:36:11;100326.34;;;19.08;83.91
58757;BME280;44527;47.460;19.016;2023-06-24T03:39:14;100314.50;;;19.02;82.82
58757;BME280;44527;47.460;19.016;2023-06-24T03:42:17;100332.97;;;19.04;82.99
58757;BME280;44527;47.460;19.016;2023-06-24T03:45:19;100338.28;;;19.04;82.38
58757;BME280;44527;47.460;19.016;2023-06-24T03:48:22;100340.34;;;19.10;82.27
58757;BME280;44527;47.460;19.016;2023-06-24T03:51:26;100357.62;;;19.14;83.34
58757;BME280;44527;47.460;19.016;2023-06-24T03:54:28;100377.78;;;19.17;82.01
58757;BME280;44527;47.460;19.016;2023-06-24T03:57:30;100387.03;;;19.13;81.49
58757;BME280;44527;47.460;19.016;2023-06-24T04:00:33;100398.66;;;19.29;81.58
58757;BME280;44527;47.460;19.016;2023-06-24T04:03:36;100408.81;;;19.34;80.88
58757;BME280;44527;47.460;19.016;2023-06-24T04:06:38;100413.16;;;19.35;80.40
58757;BME280;44527;47.460;19.016;2023-06-24T04:09:41;100424.16;;;19.40;81.83
58757;BME280;44527;47.460;19.016;2023-06-24T04:12:44;100434.53;;;19.51;80.21
58757;BME280;44527;47.460;19.016;2023-06-24T04:15:48;100429.34;;;19.68;79.24
58757;BME280;44527;47.460;19.016;2023-06-24T04:18:50;100432.88;;;19.68;79.91
58757;BME280;44527;47.460;19.016;2023-06-24T04:21:53;100438.91;;;19.79;81.10
58757;BME280;44527;47.460;19.016;2023-06-24T04:24:55;100424.78;;;19.86;77.84
58757;BME280;44527;47.460;19.016;2023-06-24T04:27:58;100422.22;;;20.11;77.74
58757;BME280;44527;47.460;19.016;2023-06-24T04:31:01;100427.94;;;20.24;77.75
58757;BME280;44527;47.460;19.016;2023-06-24T04:34:03;100431.75;;;20.22;77.06
58757;BME280;44527;47.460;19.016;2023-06-24T04:37:06;100412.59;;;20.18;75.68
58757;BME280;44527;47.460;19.016;2023-06-24T04:40:10;100411.81;;;20.42;76.18
58757;BME280;44527;47.460;19.016;2023-06-24T04:43:12;100409.56;;;21.37;72.60
58757;BME280;44527;47.460;19.016;2023-06-24T04:46:14;100431.28;;;23.59;63.01
58757;BME280;44527;47.460;19.016;2023-06-24T04:49:17;100425.53;;;25.22;60.10
58757;BME280;44527;47.460;19.016;2023-06-24T04:52:19;100425.22;;;26.01;55.18
58757;BME280;44527;47.460;19.016;2023-06-24T04:55:22;100427.91;;;26.01;53.16
58757;BME280;44527;47.460;19.016;2023-06-24T04:58:25;100418.94;;;26.35;53.40
58757;BME280;44527;47.460;19.016;2023-06-24T05:01:27;100422.59;;;27.29;50.21
58757;BME280;44527;47.460;19.016;2023-06-24T05:04:30;100431.81;;;28.45;46.36
58757;BME280;44527;47.460;19.016;2023-06-24T05:07:32;100438.09;;;30.26;43.02
58757;BME280;44527;47.460;19.016;2023-06-24T05:10:35;100428.81;;;31.64;39.20
58757;BME280;44527;47.460;19.016;2023-06-24T05:13:37;100434.53;;;32.15;37.52
58757;BME280;44527;47.460;19.016;2023-06-24T05:16:40;100443.38;;;33.69;34.70
58757;BME280;44527;47.460;19.016;2023-06-24T05:19:42;100451.19;;;33.26;34.55
58757;BME280;44527;47.460;19.016;2023-06-24T05:22:45;100447.44;;;33.66;34.02
58757;BME280;44527;47.460;19.016;2023-06-24T05:25:47;100451.75;;;33.84;33.64
58757;BME280;44527;47.460;19.016;2023-06-24T05:28:50;100461.28;;;35.07;32.33
58757;BME280;44527;47.460;19.016;2023-06-24T05:31:52;100450.37;;;35.07;31.70
58757;BME280;44527;47.460;19.016;2023-06-24T05:34:54;100457.00;;;34.89;32.53
58757;BME280;44527;47.460;19.016;2023-06-24T05:37:57;100460.06;;;34.97;32.33
58757;BME280;44527;47.460;19.016;2023-06-24T05:40:59;100464.22;;;34.73;31.79
58757;BME280;44527;47.460;19.016;2023-06-24T05:44:06;100470.97;;;34.16;32.97
58757;BME280;44527;47.460;19.016;2023-06-24T05:47:09;100483.09;;;33.31;34.65
58757;BME280;44527;47.460;19.016;2023-06-24T05:50:12;100472.34;;;33.24;34.32
58757;BME280;44527;47.460;19.016;2023-06-24T05:53:14;100488.47;;;33.81;34.03
58757;BME280;44527;47.460;19.016;2023-06-24T05:56:17;100484.63;;;32.36;37.10
58757;BME280;44527;47.460;19.016;2023-06-24T05:59:20;100487.28;;;32.07;36.01
58757;BME280;44527;47.460;19.016;2023-06-24T06:02:22;100492.03;;;32.00;37.75
58757;BME280;44527;47.460;19.016;2023-06-24T06:05:25;100497.25;;;32.42;35.98
58757;BME280;44527;47.460;19.016;2023-06-24T06:08:27;100496.06;;;31.50;38.40
58757;BME280;44527;47.460;19.016;2023-06-24T06:11:29;100499.81;;;31.26;38.94
58757;BME280;44527;47.460;19.016;2023-06-24T06:14:32;100506.56;;;31.70;38.16
58757;BME280;44527;47.460;19.016;2023-06-24T06:17:34;100509.94;;;32.65;36.71
58757;BME280;44527;47.460;19.016;2023-06-24T06:20:37;100512.41;;;33.12;34.97
58757;BME280;44527;47.460;19.016;2023-06-24T06:23:39;100514.72;;;32.46;37.28
58757;BME280;44527;47.460;19.016;2023-06-24T06:26:42;100530.84;;;31.77;37.94
58757;BME280;44527;47.460;19.016;2023-06-24T06:29:48;100527.56;;;31.63;38.66
58757;BME280;44527;47.460;19.016;2023-06-24T06:32:50;100508.84;;;30.29;40.36
58757;BME280;44527;47.460;19.016;2023-06-24T06:35:53;100520.47;;;29.49;42.65
58757;BME280;44527;47.460;19.016;2023-06-24T06:38:56;100521.31;;;30.12;42.42
58757;BME280;44527;47.460;19.016;2023-06-24T06:41:58;100531.16;;;30.80;41.49
58757;BME280;44527;47.460;19.016;2023-06-24T06:45:00;100530.03;;;32.12;38.75
58757;BME280;44527;47.460;19.016;2023-06-24T06:48:03;100533.66;;;34.43;33.46
58757;BME280;44527;47.460;19.016;2023-06-24T06:51:09;100537.69;;;35.12;33.26
58757;BME280;44527;47.460;19.016;2023-06-24T06:54:12;100533.72;;;36.04;30.95
58757;BME280;44527;47.460;19.016;2023-06-24T06:57:14;100534.31;;;36.11;30.70
58757;BME280;44527;47.460;19.016;2023-06-24T07:00:17;100539.94;;;36.00;30.07
58757;BME280;44527;47.460;19.016;2023-06-24T07:03:19;100535.16;;;37.11;29.99
58757;BME280;44527;47.460;19.016;2023-06-24T07:06:22;100538.16;;;37.55;28.82
58757;BME280;44527;47.460;19.016;2023-06-24T07:09:24;100523.94;;;37.22;29.08
58757;BME280;44527;47.460;19.016;2023-06-24T07:12:27;100526.69;;;37.22;29.41
58757;BME280;44527;47.460;19.016;2023-06-24T07:15:29;100523.94;;;37.02;29.60
58757;BME280;44527;47.460;19.016;2023-06-24T07:18:31;100520.00;;;37.90;27.91
58757;BME280;44527;47.460;19.016;2023-06-24T07:21:34;100528.31;;;37.23;28.95
58757;BME280;44527;47.460;19.016;2023-06-24T07:24:36;100526.13;;;37.25;28.46
58757;BME280;44527;47.460;19.016;2023-06-24T07:27:38;100529.69;;;37.06;29.28
58757;BME280;44527;47.460;19.016;2023-06-24T07:30:41;100538.72;;;37.52;28.98
58757;BME280;44527;47.460;19.016;2023-06-24T07:33:43;100538.37;;;37.79;28.73
58757;BME280;44527;47.460;19.016;2023-06-24T07:36:46;100531.28;;;36.91;28.85
58757;BME280;44527;47.460;19.016;2023-06-24T07:39:48;100539.69;;;36.54;30.39
58757;BME280;44527;47.460;19.016;2023-06-24T07:42:51;100541.44;;;36.18;30.62
58757;BME280;44527;47.460;19.016;2023-06-24T07:45:53;100546.78;;;36.55;29.94
58757;BME280;44527;47.460;19.016;2023-06-24T07:48:55;100547.97;;;36.90;30.75
58757;BME280;44527;47.460;19.016;2023-06-24T07:51:58;100548.81;;;37.31;28.47
58757;BME280;44527;47.460;19.016;2023-06-24T07:55:00;100547.91;;;36.69;29.78
58757;BME280;44527;47.460;19.016;2023-06-24T07:58:03;100552.72;;;36.42;30.40
58757;BME280;44527;47.460;19.016;2023-06-24T08:01:05;100543.41;;;36.32;30.03
58757;BME280;44527;47.460;19.016;2023-06-24T08:04:08;100543.72;;;35.88;30.54
58757;BME280;44527;47.460;19.016;2023-06-24T08:07:10;100552.34;;;35.38;32.73
58757;BME280;44527;47.460;19.016;2023-06-24T08:10:13;100552.81;;;34.97;33.08
58757;BME280;44527;47.460;19.016;2023-06-24T08:13:17;100553.69;;;34.32;33.04
58757;BME280;44527;47.460;19.016;2023-06-24T08:16:19;100553.56;;;33.66;35.59
58757;BME280;44527;47.460;19.016;2023-06-24T08:19:23;100540.56;;;32.60;36.48
58757;BME280;44527;47.460;19.016;2023-06-24T08:22:25;100551.03;;;31.69;39.28
58757;BME280;44527;47.460;19.016;2023-06-24T08:25:28;100549.84;;;31.77;38.80
58757;BME280;44527;47.460;19.016;2023-06-24T08:28:30;100551.25;;;31.79;39.07
58757;BME280;44527;47.460;19.016;2023-06-24T08:31:32;100541.97;;;31.22;39.57
58757;BME280;44527;47.460;19.016;2023-06-24T08:34:35;100550.66;;;31.00;41.08
58757;BME280;44527;47.460;19.016;2023-06-24T08:37:37;100557.97;;;29.89;42.65
58757;BME280;44527;47.460;19.016;2023-06-24T08:40:40;100569.88;;;29.00;44.51
58757;BME280;44527;47.460;19.016;2023-06-24T08:43:45;100566.41;;;28.28;46.88
58757;BME280;44527;47.460;19.016;2023-06-24T08:46:48;100559.13;;;28.42;47.49
58757;BME280;44527;47.460;19.016;2023-06-24T08:49:54;100553.47;;;28.50;48.47
58757;BME280;44527;47.460;19.016;2023-06-24T08:53:03;100555.72;;;28.66;47.98
58757;BME280;44527;47.460;19.016;2023-06-24T08:56:07;100553.78;;;28.15;49.63
58757;BME280;44527;47.460;19.016;2023-06-24T08:59:09;100560.06;;;27.89;48.53
58757;BME280;44527;47.460;19.016;2023-06-24T09:02:12;100555.06;;;27.26;49.73
58757;BME280;44527;47.460;19.016;2023-06-24T09:05:16;100556.25;;;27.10;51.77
58757;BME280;44527;47.460;19.016;2023-06-24T09:08:19;100555.56;;;26.81;53.77
58757;BME280;44527;47.460;19.016;2023-06-24T09:11:25;100551.31;;;26.59;53.36
58757;BME280;44527;47.460;19.016;2023-06-24T09:14:29;100540.88;;;26.36;53.71
58757;BME280;44527;47.460;19.016;2023-06-24T09:17:32;100541.56;;;26.17;56.34
58757;BME280;44527;47.460;19.016;2023-06-24T09:20:35;100554.12;;;26.03;56.48
58757;BME280;44527;47.460;19.016;2023-06-24T09:23:43;100555.81;;;26.10;55.82
58757;BME280;44527;47.460;19.016;2023-06-24T09:26:45;100567.66;;;26.16;55.84
58757;BME280;44527;47.460;19.016;2023-06-24T09:29:48;100567.53;;;26.31;56.44
58757;BME280;44527;47.460;19.016;2023-06-24T09:32:52;100559.34;;;26.94;52.45
58757;BME280;44527;47.460;19.016;2023-06-24T09:35:56;100556.31;;;27.43;51.42
58757;BME280;44527;47.460;19.016;2023-06-24T09:39:05;100552.19;;;27.67;51.64
58757;BME280;44527;47.460;19.016;2023-06-24T09:42:20;100555.91;;;27.93;50.63
58757;BME280;44527;47.460;19.016;2023-06-24T09:45:28;100556.28;;;28.03;49.50
58757;BME280;44527;47.460;19.016;2023-06-24T09:48:33;100553.81;;;28.02;50.79
58757;BME280;44527;47.460;19.016;2023-06-24T09:51:40;100547.78;;;28.00;52.18
58757;BME280;44527;47.460;19.016;2023-06-24T09:54:46;100554.88;;;27.87;51.88
58757;BME280;44527;47.460;19.016;2023-06-24T09:57:51;100548.03;;;27.78;49.81
58757;BME280;44527;47.460;19.016;2023-06-24T10:00:55;100555.50;;;27.43;52.51
58757;BME280;44527;47.460;19.016;2023-06-24T10:03:58;100538.03;;;28.05;52.19
58757;BME280;44527;47.460;19.016;2023-06-24T10:07:01;100535.41;;;28.57;49.39
58757;BME280;44527;47.460;19.016;2023-06-24T10:10:06;100535.06;;;28.78;48.74
58757;BME280;44527;47.460;19.016;2023-06-24T10:13:08;100539.97;;;28.56;50.27
58757;BME280;44527;47.460;19.016;2023-06-24T10:16:11;100526.75;;;28.22;49.54
58757;BME280;44527;47.460;19.016;2023-06-24T10:19:19;100518.75;;;27.95;49.61
58757;BME280;44527;47.460;19.016;2023-06-24T10:22:24;100511.09;;;27.72;51.50
58757;BME280;44527;47.460;19.016;2023-06-24T10:25:35;100511.94;;;27.19;53.77
58757;BME280;44527;47.460;19.016;2023-06-24T10:32:09;100514.22;;;27.16;52.88
58757;BME280;44527;47.460;19.016;2023-06-24T10:35:26;100507.53;;;27.12;52.79
58757;BME280;44527;47.460;19.016;2023-06-24T10:38:31;100503.81;;;27.06;53.36
58757;BME280;44527;47.460;19.016;2023-06-24T10:41:34;100505.50;;;27.20;52.47
58757;BME280;44527;47.460;19.016;2023-06-24T10:44:48;100501.56;;;27.63;52.07
58757;BME280;44527;47.460;19.016;2023-06-24T10:47:52;100499.28;;;27.80;51.53
58757;BME280;44527;47.460;19.016;2023-06-24T10:51:02;100503.62;;;27.87;52.50
58757;BME280;44527;47.460;19.016;2023-06-24T10:54:05;100511.91;;;27.99;51.51
58757;BME280;44527;47.460;19.016;2023-06-24T10:57:11;100493.88;;;27.86;50.17
58757;BME280;44527;47.460;19.016;2023-06-24T11:00:14;100508.41;;;27.65;51.12
58757;BME280;44527;47.460;19.016;2023-06-24T11:03:17;100514.84;;;27.84;50.72
58757;BME280;44527;47.460;19.016;2023-06-24T11:06:24;100512.16;;;27.64;52.62
58757;BME280;44527;47.460;19.016;2023-06-24T11:09:27;100511.94;;;27.86;52.08
58757;BME280;44527;47.460;19.016;2023-06-24T11:12:31;100522.28;;;27.82;52.73
58757;BME280;44527;47.460;19.016;2023-06-24T11:15:33;100512.56;;;27.68;51.64
58757;BME280;44527;47.460;19.016;2023-06-24T11:18:38;100514.00;;;27.90;52.08
58757;BME280;44527;47.460;19.016;2023-06-24T11:21:40;100511.66;;;28.14;49.53
58757;BME280;44527;47.460;19.016;2023-06-24T11:24:43;100513.66;;;28.25;49.47
58757;BME280;44527;47.460;19.016;2023-06-24T11:27:45;100512.94;;;27.91;51.30
58757;BME280;44527;47.460;19.016;2023-06-24T11:30:48;100496.72;;;28.11;50.69
58757;BME280;44527;47.460;19.016;2023-06-24T11:33:51;100499.50;;;28.36;51.15
58757;BME280;44527;47.460;19.016;2023-06-24T11:36:54;100491.69;;;28.22;50.61
58757;BME280;44527;47.460;19.016;2023-06-24T11:43:07;100483.12;;;27.46;53.95
58757;BME280;44527;47.460;19.016;2023-06-24T11:46:09;100472.34;;;27.53;53.49
58757;BME280;44527;47.460;19.016;2023-06-24T11:49:11;100470.47;;;27.47;54.74
58757;BME280;44527;47.460;19.016;2023-06-24T11:52:14;100463.38;;;27.79;54.50
58757;BME280;44527;47.460;19.016;2023-06-24T11:55:19;100455.69;;;27.89;53.48
58757;BME280;44527;47.460;19.016;2023-06-24T11:58:21;100462.88;;;28.09;53.54
58757;BME280;44527;47.460;19.016;2023-06-24T12:01:30;100459.16;;;28.55;52.50
58757;BME280;44527;47.460;19.016;2023-06-24T12:04:34;100466.72;;;28.33;51.58
58757;BME280;44527;47.460;19.016;2023-06-24T12:07:39;100454.03;;;27.95;53.49
58757;BME280;44527;47.460;19.016;2023-06-24T12:10:43;100454.41;;;28.05;50.43
58757;BME280;44527;47.460;19.016;2023-06-24T12:13:45;100451.16;;;28.35;51.80
58757;BME280;44527;47.460;19.016;2023-06-24T12:16:48;100448.03;;;28.45;51.75
58757;BME280;44527;47.460;19.016;2023-06-24T12:19:50;100455.41;;;28.62;50.70
58757;BME280;44527;47.460;19.016;2023-06-24T12:22:52;100451.41;;;28.27;53.44
58757;BME280;44527;47.460;19.016;2023-06-24T12:25:54;100448.84;;;28.45;51.88
58757;BME280;44527;47.460;19.016;2023-06-24T12:28:57;100455.88;;;28.46;51.47
58757;BME280;44527;47.460;19.016;2023-06-24T12:31:59;100455.31;;;28.31;51.36
58757;BME280;44527;47.460;19.016;2023-06-24T12:35:03;100445.47;;;28.05;52.51
58757;BME280;44527;47.460;19.016;2023-06-24T12:38:05;100449.91;;;27.86;52.07
58757;BME280;44527;47.460;19.016;2023-06-24T12:41:08;100439.12;;;27.66;52.96
58757;BME280;44527;47.460;19.016;2023-06-24T12:44:10;100449.72;;;27.54;53.76
58757;BME280;44527;47.460;19.016;2023-06-24T12:47:13;100444.72;;;27.71;54.03
58757;BME280;44527;47.460;19.016;2023-06-24T12:50:15;100444.25;;;27.94;52.36
58757;BME280;44527;47.460;19.016;2023-06-24T12:53:19;100429.12;;;27.93;52.26
58757;BME280;44527;47.460;19.016;2023-06-24T12:56:21;100421.38;;;28.10;52.72
58757;BME280;44527;47.460;19.016;2023-06-24T12:59:24;100415.16;;;28.09;52.44
58757;BME280;44527;47.460;19.016;2023-06-24T13:02:26;100410.84;;;28.02;53.94
58757;BME280;44527;47.460;19.016;2023-06-24T13:05:29;100412.84;;;28.20;52.71
58757;BME280;44527;47.460;19.016;2023-06-24T13:08:31;100422.66;;;28.01;53.80
58757;BME280;44527;47.460;19.016;2023-06-24T13:11:34;100426.87;;;27.83;54.86
58757;BME280;44527;47.460;19.016;2023-06-24T13:14:36;100425.19;;;27.76;53.99
58757;BME280;44527;47.460;19.016;2023-06-24T13:17:39;100434.03;;;28.09;52.55
58757;BME280;44527;47.460;19.016;2023-06-24T13:20:41;100432.84;;;28.37;53.78
58757;BME280;44527;47.460;19.016;2023-06-24T13:23:44;100438.25;;;28.44;52.56
58757;BME280;44527;47.460;19.016;2023-06-24T13:26:48;100444.41;;;28.12;52.99
58757;BME280;44527;47.460;19.016;2023-06-24T13:29:51;100439.19;;;28.17;54.02
58757;BME280;44527;47.460;19.016;2023-06-24T13:32:53;100441.53;;;28.52;52.72
58757;BME280;44527;47.460;19.016;2023-06-24T13:35:56;100441.84;;;28.69;52.10
58757;BME280;44527;47.460;19.016;2023-06-24T13:38:58;100437.25;;;29.08;53.08
58757;BME280;44527;47.460;19.016;2023-06-24T13:42:01;100446.47;;;28.94;51.04
58757;BME280;44527;47.460;19.016;2023-06-24T13:45:04;100447.22;;;28.31;51.63
58757;BME280;44527;47.460;19.016;2023-06-24T13:48:07;100442.16;;;28.03;54.05
58757;BME280;44527;47.460;19.016;2023-06-24T13:51:09;100453.22;;;27.81;52.82
58757;BME280;44527;47.460;19.016;2023-06-24T13:54:12;100449.09;;;27.65;54.75
58757;BME280;44527;47.460;19.016;2023-06-24T13:57:14;100449.91;;;27.86;55.38
58757;BME280;44527;47.460;19.016;2023-06-24T14:00:18;100453.38;;;28.00;53.34
58757;BME280;44527;47.460;19.016;2023-06-24T14:03:21;100434.97;;;27.70;55.14
58757;BME280;44527;47.460;19.016;2023-06-24T14:06:24;100422.56;;;27.62;55.53
58757;BME280;44527;47.460;19.016;2023-06-24T14:09:26;100429.81;;;27.48;56.38
58757;BME280;44527;47.460;19.016;2023-06-24T14:12:29;100424.91;;;27.19;56.02
58757;BME280;44527;47.460;19.016;2023-06-24T14:15:31;100428.41;;;27.19;56.49
58757;BME280;44527;47.460;19.016;2023-06-24T14:18:34;100433.78;;;27.06;57.83
58757;BME280;44527;47.460;19.016;2023-06-24T14:21:37;100441.03;;;26.86;57.72
58757;BME280;44527;47.460;19.016;2023-06-24T14:24:39;100433.13;;;26.84;57.74
58757;BME280;44527;47.460;19.016;2023-06-24T14:27:42;100422.38;;;26.91;58.39
58757;BME280;44527;47.460;19.016;2023-06-24T14:30:44;100434.19;;;27.30;57.65
58757;BME280;44527;47.460;19.016;2023-06-24T14:33:48;100433.78;;;27.46;57.22
58757;BME280;44527;47.460;19.016;2023-06-24T14:36:51;100423.78;;;27.80;55.71
58757;BME280;44527;47.460;19.016;2023-06-24T14:39:54;100420.06;;;27.67;56.21
58757;BME280;44527;47.460;19.016;2023-06-24T14:42:56;100422.16;;;27.45;58.31
58757;BME280;44527;47.460;19.016;2023-06-24T14:45:59;100410.37;;;27.26;57.92
58757;BME280;44527;47.460;19.016;2023-06-24T14:49:01;100414.75;;;27.27;57.34
58757;BME280;44527;47.460;19.016;2023-06-24T14:52:04;100408.06;;;26.70;58.42
58757;BME280;44527;47.460;19.016;2023-06-24T14:55:07;100400.53;;;26.46;60.23
58757;BME280;44527;47.460;19.016;2023-06-24T14:58:09;100400.13;;;26.35;58.76
58757;BME280;44527;47.460;19.016;2023-06-24T15:01:12;100403.16;;;26.26;59.95
58757;BME280;44527;47.460;19.016;2023-06-24T15:04:14;100397.84;;;26.39;59.25
58757;BME280;44527;47.460;19.016;2023-06-24T15:07:17;100391.97;;;26.09;59.09
58757;BME280;44527;47.460;19.016;2023-06-24T15:10:19;100394.66;;;26.09;60.27
58757;BME280;44527;47.460;19.016;2023-06-24T15:13:22;100388.47;;;26.22;59.66
58757;BME280;44527;47.460;19.016;2023-06-24T15:16:24;100391.81;;;26.30;60.38
58757;BME280;44527;47.460;19.016;2023-06-24T15:19:26;100388.78;;;26.53;60.15
58757;BME280;44527;47.460;19.016;2023-06-24T15:22:29;100384.31;;;26.19;60.64
58757;BME280;44527;47.460;19.016;2023-06-24T15:25:31;100390.56;;;26.26;61.22
58757;BME280;44527;47.460;19.016;2023-06-24T15:28:34;100383.53;;;26.32;61.10
58757;BME280;44527;47.460;19.016;2023-06-24T15:31:36;100380.81;;;26.25;60.05
58757;BME280;44527;47.460;19.016;2023-06-24T15:34:39;100390.34;;;26.28;60.59
58757;BME280;44527;47.460;19.016;2023-06-24T15:37:41;100386.44;;;26.30;61.61
58757;BME280;44527;47.460;19.016;2023-06-24T15:40:44;100389.53;;;26.27;60.17
58757;BME280;44527;47.460;19.016;2023-06-24T15:43:46;100384.72;;;26.16;59.79
58757;BME280;44527;47.460;19.016;2023-06-24T15:46:48;100376.66;;;26.16;60.74
58757;BME280;44527;47.460;19.016;2023-06-24T15:49:51;100380.16;;;26.10;61.08
58757;BME280;44527;47.460;19.016;2023-06-24T15:52:54;100380.38;;;26.08;62.70
58757;BME280;44527;47.460;19.016;2023-06-24T15:55:56;100375.19;;;26.07;60.40
58757;BME280;44527;47.460;19.016;2023-06-24T15:58:58;100371.16;;;25.83;61.82